Friday, October 24, 2014, 4:28 PM EDT

KOKV, Winchester Regional

Location: Winchester, VA, United States Lat: 39.15
Local Time: 4:28 PM EDT (20:28 GMT) Lon: -78.15
Time Zone: US/Eastern Elev: 728 ft

Show me the last for .
Show Decoded

2014-10-24 16:15 METAR KOKV 242015Z AUTO 30008G16KT 10SM CLR 17/M03 A2994 RMK AO2 =
2014-10-24 15:55 METAR KOKV 241955Z AUTO 33008G14KT 10SM CLR 18/M03 A2994 RMK AO2 =
2014-10-24 15:35 METAR KOKV 241935Z AUTO 31014KT 10SM CLR 18/M02 A2994 RMK AO2 =
2014-10-24 15:15 METAR KOKV 241915Z AUTO 31012KT 10SM CLR 18/M02 A2994 RMK AO2 =
2014-10-24 14:55 METAR KOKV 241855Z AUTO 31012KT 10SM CLR 19/M01 A2995 RMK AO2 =
2014-10-24 14:35 METAR KOKV 241835Z AUTO 30014KT 10SM CLR 18/M01 A2995 RMK AO2 =
2014-10-24 14:15 METAR KOKV 241815Z AUTO 31012G20KT 10SM CLR 19/M01 A2995 RMK AO2 =
2014-10-24 13:55 METAR KOKV 241755Z AUTO 31012KT 10SM CLR 18/00 A2996 RMK AO2 =
2014-10-24 13:35 METAR KOKV 241735Z AUTO 31013G19KT 10SM CLR 18/00 A2997 RMK AO2 =
2014-10-24 13:15 METAR KOKV 241715Z AUTO 29010G17KT 10SM CLR 18/01 A2998 RMK AO2 =
2014-10-24 12:55 METAR KOKV 241655Z AUTO 29010G16KT 10SM CLR 17/01 A2999 RMK AO2 =
2014-10-24 12:35 METAR KOKV 241635Z AUTO 32010G18KT 10SM CLR 17/01 A3000 RMK AO2 =
2014-10-24 12:15 METAR KOKV 241615Z AUTO 30012G18KT 10SM CLR 17/01 A3000 RMK AO2 =
2014-10-24 11:55 METAR KOKV 241555Z AUTO 31014KT 10SM CLR 16/02 A3001 RMK AO2 =
2014-10-24 11:35 METAR KOKV 241535Z AUTO 30014KT 10SM CLR 16/02 A3002 RMK AO2 =
2014-10-24 11:15 METAR KOKV 241515Z AUTO 30012KT 10SM CLR 16/02 A3002 RMK AO2 =
2014-10-24 10:55 METAR KOKV 241455Z AUTO 29014KT 10SM CLR 15/02 A3002 RMK AO2 =
2014-10-24 10:35 METAR KOKV 241435Z AUTO 28007KT 10SM CLR 15/02 A3003 RMK AO2 =
2014-10-24 10:15 METAR KOKV 241415Z AUTO 27011KT 10SM CLR 15/02 A3003 RMK AO2 =
2014-10-24 09:55 METAR KOKV 241355Z AUTO 29013G16KT 10SM CLR 14/02 A3003 RMK AO2 =
2014-10-24 09:35 METAR KOKV 241335Z AUTO 30010G16KT 10SM CLR 13/03 A3003 RMK AO2 =
2014-10-24 09:15 METAR KOKV 241315Z AUTO 29006KT 10SM CLR 12/03 A3003 RMK AO2 =
2014-10-24 08:55 METAR KOKV 241255Z AUTO 28009G14KT 250V310 10SM CLR 12/03 A3003 RMK AO2 =
2014-10-24 08:35 METAR KOKV 241235Z AUTO 29013G18KT 10SM CLR 12/03 A3002 RMK AO2 =
2014-10-24 08:15 METAR KOKV 241215Z AUTO 29009G19KT 10SM CLR 11/03 A3002 RMK AO2 =
2014-10-24 07:55 METAR KOKV 241155Z AUTO 29013G20KT 10SM CLR 11/03 A3001 RMK AO2 =
2014-10-24 07:35 METAR KOKV 241135Z AUTO 31007G18KT 10SM CLR 11/03 A3001 RMK AO2 =
2014-10-24 07:15 METAR KOKV 241115Z AUTO 30009G16KT 10SM CLR 11/03 A3001 RMK AO2 =
2014-10-24 06:55 METAR KOKV 241055Z AUTO 31009G14KT 10SM CLR 10/03 A3002 RMK AO2 =
2014-10-24 06:35 METAR KOKV 241035Z AUTO 32008KT 10SM CLR 11/03 A3002 RMK AO2 =
2014-10-24 06:15 METAR KOKV 241015Z AUTO 33003KT 10SM CLR 10/03 A3001 RMK AO2 =
2014-10-24 05:55 METAR KOKV 240955Z AUTO 32006KT 10SM CLR 10/03 A3000 RMK AO2 =
2014-10-24 05:35 METAR KOKV 240935Z AUTO 32008G21KT 10SM CLR 11/03 A2999 RMK AO2 =
2014-10-24 05:15 METAR KOKV 240915Z AUTO 31015KT 10SM CLR 11/03 A2998 RMK AO2 =
2014-10-24 04:55 METAR KOKV 240855Z AUTO 31008KT 10SM CLR 11/03 A2999 RMK AO2 =
2014-10-24 04:35 METAR KOKV 240835Z AUTO 31011G14KT 10SM CLR 11/03 A2998 RMK AO2 =
2014-10-24 04:15 METAR KOKV 240815Z AUTO 31013G16KT 10SM CLR 12/03 A2997 RMK AO2 =
2014-10-24 03:55 METAR KOKV 240755Z AUTO 30017G22KT 10SM CLR 12/03 A2996 RMK AO2 =
2014-10-24 03:35 METAR KOKV 240735Z AUTO 30015G25KT 10SM CLR 12/03 A2996 RMK AO2 =
2014-10-24 03:15 METAR KOKV 240715Z AUTO 31019G23KT 10SM CLR 12/03 A2995 RMK AO2 =
2014-10-24 02:55 METAR KOKV 240655Z AUTO 31015KT 10SM CLR 12/03 A2996 RMK AO2 =
2014-10-24 02:35 METAR KOKV 240635Z AUTO 30019G28KT 10SM SCT050 12/03 A2995 RMK AO2 =
2014-10-24 02:15 METAR KOKV 240615Z AUTO 30017G23KT 10SM SCT050 12/03 A2997 RMK AO2 =
2014-10-24 01:55 METAR KOKV 240555Z AUTO 29013G19KT 10SM CLR 12/02 A2998 RMK AO2 =
2014-10-24 01:35 METAR KOKV 240535Z AUTO 29017G20KT 10SM CLR 13/02 A2997 RMK AO2 =
2014-10-24 01:15 METAR KOKV 240515Z AUTO 29012G18KT 10SM CLR 13/02 A2998 RMK AO2 =
2014-10-24 00:55 METAR KOKV 240455Z AUTO 30019G23KT 10SM CLR 13/02 A2998 RMK AO2 =
2014-10-24 00:35 METAR KOKV 240435Z AUTO 31008G12KT 10SM CLR 13/02 A2999 RMK AO2 =
2014-10-24 00:15 METAR KOKV 240415Z AUTO 30011G17KT 10SM CLR 13/02 A2998 RMK AO2 =
2014-10-23 23:55 METAR KOKV 240355Z AUTO 31007KT 10SM CLR 13/02 A2998 RMK AO2 =
2014-10-23 23:35 METAR KOKV 240335Z AUTO 31007G19KT 300V360 10SM CLR 13/02 A2998 RMK AO2 =
2014-10-23 23:15 METAR KOKV 240315Z AUTO 31015KT 10SM CLR 13/02 A2997 RMK AO2 =
2014-10-23 22:55 METAR KOKV 240255Z AUTO 31009KT 10SM CLR 13/03 A2997 RMK AO2 =
2014-10-23 22:35 METAR KOKV 240235Z AUTO 31011G19KT 10SM CLR 14/03 A2997 RMK AO2 =
2014-10-23 22:15 METAR KOKV 240215Z AUTO 30014G18KT 10SM CLR 14/02 A2997 RMK AO2 =
2014-10-23 21:55 METAR KOKV 240155Z AUTO 31011G16KT 10SM CLR 14/03 A2997 RMK AO2 =
2014-10-23 21:35 METAR KOKV 240135Z AUTO 30015G21KT 10SM CLR 15/03 A2996 RMK AO2 =
2014-10-23 21:15 METAR KOKV 240115Z AUTO 30017KT 10SM CLR 15/03 A2995 RMK AO2 =
2014-10-23 20:55 METAR KOKV 240055Z AUTO 30014G24KT 10SM CLR 15/03 A2996 RMK AO2 =
2014-10-23 20:35 METAR KOKV 240035Z AUTO 30018G25KT 10SM CLR 15/03 A2995 RMK AO2 =
2014-10-23 20:15 METAR KOKV 240015Z AUTO 30019G23KT 10SM CLR 15/03 A2994 RMK AO2 =
2014-10-23 19:55 METAR KOKV 232355Z AUTO 30016G21KT 10SM SCT060 15/03 A2994 RMK AO2 =
2014-10-23 19:35 METAR KOKV 232335Z AUTO 29013G19KT 10SM BKN060 16/03 A2994 RMK AO2 =
2014-10-23 19:15 METAR KOKV 232315Z AUTO 29013KT 10SM BKN060 16/03 A2994 RMK AO2 =
2014-10-23 18:55 METAR KOKV 232255Z AUTO 29013KT 10SM SCT060 16/02 A2994 RMK AO2 =
2014-10-23 18:35 METAR KOKV 232235Z AUTO 30010G18KT 10SM CLR 16/02 A2993 RMK AO2 =
2014-10-23 18:15 METAR KOKV 232215Z AUTO 30016KT 10SM SCT060 16/02 A2992 RMK AO2 =
2014-10-23 17:55 METAR KOKV 232155Z AUTO 31012G16KT 10SM BKN060 17/02 A2992 RMK AO2 =
2014-10-23 17:35 METAR KOKV 232135Z AUTO 31010KT 10SM BKN060 17/02 A2992 RMK AO2 =
2014-10-23 17:15 METAR KOKV 232115Z AUTO 30010KT 10SM OVC060 17/03 A2992 RMK AO2 =
2014-10-23 16:55 METAR KOKV 232055Z AUTO 31012G18KT 10SM OVC050 17/03 A2992 RMK AO2 =
2014-10-23 16:35 METAR KOKV 232035Z AUTO 31013G17KT 10SM OVC050 17/02 A2992 RMK AO2 =

Support USWX by starting your Amazon purchase here.